createdAt,value
2022-11-21T00:00:24.462Z,21.17
2022-11-21T00:02:53.044Z,21.02
2022-11-21T00:05:21.529Z,21.63
2022-11-21T00:07:49.885Z,21.27
2022-11-21T00:10:18.535Z,22.40
2022-11-21T00:12:48.487Z,22.70
2022-11-21T00:15:16.981Z,22.50
2022-11-21T00:17:45.214Z,23.55
2022-11-21T00:20:13.676Z,22.80
2022-11-21T00:22:41.955Z,23.25
2022-11-21T00:25:11.406Z,23.27
2022-11-21T00:27:39.815Z,23.73
2022-11-21T00:30:12.498Z,23.65
2022-11-21T00:32:40.887Z,24.27
2022-11-21T00:35:09.967Z,23.20
2022-11-21T00:37:38.311Z,23.45
2022-11-21T00:40:08.072Z,23.52
2022-11-21T00:42:36.445Z,23.52
2022-11-21T00:45:05.383Z,22.42
2022-11-21T00:47:35.125Z,22.08
2022-11-21T00:50:03.565Z,22.33
2022-11-21T00:52:32.011Z,22.00
2022-11-21T00:55:00.290Z,23.48
2022-11-21T00:57:28.607Z,22.58
2022-11-21T00:59:56.906Z,22.85
2022-11-21T01:02:25.267Z,24.52
2022-11-21T01:04:55.014Z,24.13
2022-11-21T01:07:23.440Z,25.37
2022-11-21T01:09:51.830Z,23.63
2022-11-21T01:12:20.153Z,24.60
2022-11-21T01:14:48.485Z,24.42
2022-11-21T01:17:16.753Z,24.80
2022-11-21T01:19:45.112Z,25.08
2022-11-21T01:22:14.818Z,25.00
2022-11-21T01:24:43.199Z,26.35
2022-11-21T01:27:11.503Z,24.88
2022-11-21T01:29:39.806Z,26.90
2022-11-21T01:32:08.187Z,26.20
2022-11-21T01:34:36.448Z,27.05
2022-11-21T01:37:04.810Z,28.27
2022-11-21T01:39:34.400Z,27.98
2022-11-21T01:42:02.738Z,29.10
2022-11-21T01:44:49.865Z,30.42
2022-11-21T01:47:18.943Z,30.55
2022-11-21T01:49:48.250Z,30.05
2022-11-21T01:52:22.857Z,30.33
2022-11-21T01:54:57.759Z,30.95
2022-11-21T01:57:29.611Z,31.48
2022-11-21T02:00:02.411Z,32.22
2022-11-21T02:02:38.871Z,32.35
2022-11-21T02:05:10.649Z,32.10
2022-11-21T02:07:44.643Z,31.13
2022-11-21T02:10:15.811Z,31.65
2022-11-21T02:12:50.551Z,31.77
2022-11-21T02:15:19.566Z,31.98
2022-11-21T02:17:47.869Z,31.95
2022-11-21T02:20:18.818Z,32.70
2022-11-21T02:22:57.951Z,31.83
2022-11-21T02:25:29.673Z,30.23
2022-11-21T02:28:02.364Z,32.00
2022-11-21T02:30:33.218Z,33.15
2022-11-21T02:33:01.573Z,35.45
2022-11-21T02:35:30.042Z,32.65
2022-11-21T02:38:02.281Z,33.85
2022-11-21T02:40:36.402Z,39.03
2022-11-21T02:43:13.729Z,33.72
2022-11-21T02:45:44.122Z,42.53
2022-11-21T02:48:13.394Z,34.65
2022-11-21T02:50:44.028Z,33.10
2022-11-21T02:55:44.477Z,35.40
2022-11-21T02:58:13.794Z,31.03
2022-11-21T03:00:43.950Z,33.43
2022-11-21T03:03:12.648Z,30.25
2022-11-21T03:05:41.546Z,34.67
2022-11-21T03:08:10.226Z,31.30
2022-11-21T03:10:38.939Z,29.80
2022-11-21T03:13:08.669Z,33.25
2022-11-21T03:15:37.350Z,30.33
2022-11-21T03:18:06.408Z,30.85
2022-11-21T03:20:36.031Z,28.63
2022-11-21T03:23:04.733Z,28.20
2022-11-21T03:25:33.150Z,27.07
2022-11-21T03:28:01.373Z,26.40
2022-11-21T03:30:30.997Z,26.23
2022-11-21T03:32:59.748Z,25.88
2022-11-21T03:35:27.994Z,25.87
2022-11-21T03:37:56.257Z,24.97
2022-11-21T03:40:24.545Z,26.10
2022-11-21T03:42:52.746Z,24.33
2022-11-21T03:45:20.962Z,25.00
2022-11-21T03:47:50.561Z,24.52
2022-11-21T03:50:20.988Z,26.30
2022-11-21T03:52:49.348Z,24.20
2022-11-21T03:55:17.759Z,23.80
2022-11-21T03:57:46.036Z,24.47
2022-11-21T04:00:16.628Z,23.47
2022-11-21T04:05:14.393Z,23.90
2022-11-21T04:07:42.755Z,28.80
2022-11-21T04:10:11.793Z,28.80
2022-11-21T04:12:40.101Z,29.00
2022-11-21T04:15:13.446Z,29.03
2022-11-21T04:17:42.455Z,27.63
2022-11-21T04:20:13.722Z,26.40
2022-11-21T04:22:41.993Z,28.53
2022-11-21T04:25:10.673Z,30.37
2022-11-21T04:27:38.947Z,29.13
2022-11-21T04:30:08.602Z,32.33
2022-11-21T04:32:37.001Z,28.92
2022-11-21T04:35:06.319Z,29.63
2022-11-21T04:37:35.947Z,29.63
2022-11-21T04:40:04.741Z,27.80
2022-11-21T04:42:32.937Z,29.07
2022-11-21T04:45:01.179Z,27.87
2022-11-21T04:47:29.586Z,28.47
2022-11-21T04:49:57.860Z,29.83
2022-11-21T04:52:26.156Z,30.10
2022-11-21T04:54:55.776Z,31.60
2022-11-21T04:57:24.919Z,30.77
2022-11-21T04:59:53.344Z,29.87
2022-11-21T05:02:21.712Z,30.50
2022-11-21T05:04:50.166Z,32.67
2022-11-21T05:07:19.020Z,32.37
2022-11-21T05:09:47.340Z,29.70
2022-11-21T05:12:34.351Z,31.67
2022-11-21T05:15:02.850Z,30.23
2022-11-21T05:17:31.397Z,30.90
2022-11-21T05:19:59.687Z,29.23
2022-11-21T05:22:27.973Z,29.53
2022-11-21T05:24:56.318Z,30.10
2022-11-21T05:27:25.953Z,32.20
2022-11-21T05:29:55.361Z,32.25
2022-11-21T05:32:24.718Z,30.53
2022-11-21T05:34:53.019Z,34.30
2022-11-21T05:37:21.982Z,33.30
2022-11-21T05:39:50.313Z,31.47
2022-11-21T05:42:38.860Z,32.50
2022-11-21T05:45:09.698Z,33.60
2022-11-21T05:47:38.246Z,34.07
2022-11-21T05:50:07.584Z,31.63
2022-11-21T05:52:35.846Z,31.57
2022-11-21T05:55:04.295Z,32.50
2022-11-21T05:57:32.724Z,32.00
2022-11-21T06:00:00.953Z,31.60
2022-11-21T06:02:48.049Z,30.47
2022-11-21T06:05:16.556Z,30.85
2022-11-21T06:07:44.902Z,32.72
2022-11-21T06:10:13.235Z,29.85
2022-11-21T06:12:41.440Z,31.73
2022-11-21T06:15:10.840Z,33.78
2022-11-21T06:17:40.493Z,28.25
2022-11-21T06:20:11.412Z,28.75
2022-11-21T06:22:39.740Z,28.13
2022-11-21T06:25:08.805Z,27.90
2022-11-21T06:27:37.066Z,28.60
2022-11-21T06:30:06.048Z,28.40
2022-11-21T06:32:39.826Z,27.60
2022-11-21T06:35:09.049Z,26.70
2022-11-21T06:37:37.393Z,28.23
2022-11-21T06:40:07.245Z,27.80
2022-11-21T06:42:35.541Z,28.60
2022-11-21T06:45:03.962Z,26.65
2022-11-21T06:47:35.426Z,28.42
2022-11-21T06:50:05.546Z,27.75
2022-11-21T06:52:34.511Z,28.58
2022-11-21T06:55:02.874Z,26.75
2022-11-21T06:57:32.729Z,26.20
2022-11-21T07:00:01.105Z,26.27
2022-11-21T07:02:29.385Z,26.08
2022-11-21T07:04:57.784Z,26.83
2022-11-21T07:07:27.470Z,27.75
2022-11-21T07:09:55.802Z,26.45
2022-11-21T07:12:41.660Z,27.10
2022-11-21T07:15:12.063Z,26.17
2022-11-21T07:17:40.337Z,27.15
2022-11-21T07:20:10.294Z,26.55
2022-11-21T07:22:40.097Z,26.77
2022-11-21T07:25:09.050Z,25.25
2022-11-21T07:27:37.350Z,26.45
2022-11-21T07:30:06.540Z,27.27
2022-11-21T07:32:34.842Z,26.38
2022-11-21T07:35:03.123Z,28.60
2022-11-21T07:37:31.482Z,27.48
2022-11-21T07:40:01.087Z,25.90
2022-11-21T07:42:29.344Z,25.63
2022-11-21T07:44:58.048Z,25.83
2022-11-21T07:47:26.399Z,24.45
2022-11-21T07:49:54.708Z,24.77
2022-11-21T07:52:23.093Z,23.88
2022-11-21T07:54:51.382Z,23.30
2022-11-21T07:57:21.058Z,23.05
2022-11-21T07:59:49.575Z,21.67
2022-11-21T08:02:21.192Z,22.02
2022-11-21T08:04:49.866Z,21.33
2022-11-21T08:07:20.832Z,21.63
2022-11-21T08:09:49.562Z,20.27
2022-11-21T08:12:18.559Z,17.90
2022-11-21T08:14:48.230Z,17.23
2022-11-21T08:17:18.491Z,17.77
2022-11-21T08:19:46.826Z,15.48
2022-11-21T08:22:15.043Z,15.45
2022-11-21T08:24:43.495Z,14.07
2022-11-21T08:27:11.807Z,13.60
2022-11-21T08:29:40.084Z,12.57
2022-11-21T08:32:09.978Z,12.27
2022-11-21T08:34:38.497Z,11.13
2022-11-21T08:37:06.798Z,12.93
2022-11-21T08:39:36.032Z,10.88
2022-11-21T08:42:04.455Z,9.15
2022-11-21T08:44:33.678Z,9.77
2022-11-21T08:47:03.297Z,10.13
2022-11-21T08:49:33.221Z,8.88
2022-11-21T08:52:01.549Z,9.30
2022-11-21T08:54:30.212Z,8.20
2022-11-21T08:56:58.732Z,8.43
2022-11-21T08:59:26.981Z,7.43
2022-11-21T09:01:55.461Z,8.07
2022-11-21T09:04:23.994Z,7.80
2022-11-21T09:06:53.651Z,7.35
2022-11-21T09:09:25.326Z,6.20
2022-11-21T09:11:54.243Z,5.47
2022-11-21T09:14:49.517Z,5.47
2022-11-21T09:17:35.787Z,4.72
2022-11-21T09:20:04.553Z,5.32
2022-11-21T09:22:34.236Z,5.72
2022-11-21T09:25:02.718Z,5.30
2022-11-21T09:27:32.394Z,4.95
2022-11-21T09:30:00.623Z,5.53
2022-11-21T09:32:28.917Z,5.18
2022-11-21T09:34:57.267Z,5.00
2022-11-21T09:37:25.581Z,4.85
2022-11-21T09:39:55.343Z,5.30
2022-11-21T09:42:51.933Z,6.07
2022-11-21T09:45:26.964Z,5.60
2022-11-21T09:47:56.701Z,4.88
2022-11-21T09:50:31.443Z,5.65
2022-11-21T09:53:04.325Z,5.75
2022-11-21T09:55:45.328Z,5.32
2022-11-21T09:58:24.352Z,5.63
2022-11-21T10:00:53.533Z,5.53
2022-11-21T10:03:26.161Z,5.60
2022-11-21T10:06:00.668Z,6.13
2022-11-21T10:08:36.235Z,6.03
2022-11-21T10:11:20.314Z,5.40
2022-11-21T10:14:05.545Z,5.75
2022-11-21T10:16:44.690Z,6.10
2022-11-21T10:19:59.025Z,5.60
2022-11-21T10:22:49.323Z,6.30
2022-11-21T10:25:27.164Z,5.50
2022-11-21T10:28:03.456Z,6.10
2022-11-21T10:30:31.785Z,5.93
2022-11-21T10:33:04.678Z,6.00
2022-11-21T10:35:44.846Z,6.00
2022-11-21T10:38:23.094Z,5.35
2022-11-21T10:40:55.987Z,6.43
2022-11-21T10:43:54.191Z,6.15
2022-11-21T10:46:22.601Z,7.15
2022-11-21T10:48:59.525Z,6.70
2022-11-21T10:51:40.793Z,6.95
2022-11-21T10:54:29.530Z,7.15
2022-11-21T10:57:06.832Z,8.15
2022-11-21T10:59:36.647Z,7.72
2022-11-21T11:02:24.655Z,8.67
2022-11-21T11:05:24.861Z,8.15
2022-11-21T11:08:09.298Z,8.32
2022-11-21T11:10:39.918Z,8.57
2022-11-21T11:13:50.144Z,8.70
2022-11-21T11:18:57.338Z,9.60
2022-11-21T11:21:30.077Z,9.82
2022-11-21T11:24:22.289Z,9.18
2022-11-21T11:27:00.007Z,8.23
2022-11-21T11:29:31.010Z,8.38
2022-11-21T11:32:04.343Z,7.05
2022-11-21T11:34:40.944Z,7.05
2022-11-21T11:37:21.858Z,7.45
2022-11-21T11:40:16.966Z,6.88
2022-11-21T11:43:32.404Z,6.10
2022-11-21T11:46:33.678Z,5.80
2022-11-21T11:49:22.364Z,5.75
2022-11-21T11:51:55.943Z,5.75
2022-11-21T11:54:31.506Z,6.57
2022-11-21T11:57:01.041Z,6.22
2022-11-21T11:59:35.027Z,5.47
2022-11-21T12:02:11.866Z,4.80
2022-11-21T12:04:49.078Z,4.82
2022-11-21T12:10:19.522Z,5.88
2022-11-21T12:12:53.883Z,5.35
2022-11-21T12:15:44.294Z,5.28
2022-11-21T12:18:25.169Z,6.47
2022-11-21T12:21:00.437Z,6.15
2022-11-21T12:23:33.233Z,6.45
2022-11-21T12:26:19.571Z,5.93
2022-11-21T12:29:04.182Z,6.00
2022-11-21T12:31:48.336Z,5.20
2022-11-21T12:34:35.417Z,5.03
2022-11-21T12:37:19.227Z,6.00
2022-11-21T12:40:10.722Z,5.72
2022-11-21T12:42:51.476Z,5.97
2022-11-21T12:48:37.827Z,6.20
2022-11-21T12:51:54.103Z,7.43
2022-11-21T12:54:43.129Z,6.97
2022-11-21T12:57:13.991Z,7.22
2022-11-21T12:59:53.757Z,7.88
2022-11-21T13:02:37.188Z,7.60
2022-11-21T13:05:11.295Z,7.32
2022-11-21T13:07:41.020Z,8.18
2022-11-21T13:10:16.924Z,8.52
2022-11-21T13:12:49.485Z,8.20
2022-11-21T13:15:26.693Z,7.90
2022-11-21T13:18:00.334Z,6.75
2022-11-21T13:20:35.308Z,6.85
2022-11-21T13:23:06.534Z,6.70
2022-11-21T13:25:48.690Z,6.15
2022-11-21T13:28:38.815Z,6.47
2022-11-21T13:31:30.859Z,6.22
2022-11-21T13:34:00.512Z,6.13
2022-11-21T13:36:44.316Z,6.60
2022-11-21T13:39:38.931Z,6.47
2022-11-21T13:42:30.378Z,6.18
2022-11-21T13:44:58.996Z,6.00
2022-11-21T13:48:17.663Z,6.60
2022-11-21T13:51:32.000Z,6.30
2022-11-21T13:54:24.662Z,5.75
2022-11-21T13:57:11.449Z,6.20
2022-11-21T13:59:57.453Z,6.22
2022-11-21T14:02:56.112Z,6.07
2022-11-21T14:06:00.400Z,5.55
2022-11-21T14:08:30.196Z,6.82
2022-11-21T14:10:59.534Z,6.13
2022-11-21T14:13:31.277Z,6.43
2022-11-21T14:16:25.359Z,6.10
2022-11-21T14:18:55.686Z,6.90
2022-11-21T14:21:27.953Z,6.07
2022-11-21T14:23:59.253Z,7.47
2022-11-21T14:26:29.814Z,7.10
2022-11-21T14:29:18.824Z,7.05
2022-11-21T14:31:48.707Z,6.57
2022-11-21T14:34:28.596Z,7.30
2022-11-21T14:37:01.407Z,7.32
2022-11-21T14:39:39.930Z,7.93
2022-11-21T14:44:42.298Z,7.28
2022-11-21T14:47:21.567Z,6.60
2022-11-21T14:49:59.769Z,7.45
2022-11-21T14:52:31.919Z,7.80
2022-11-21T15:00:57.318Z,7.38
2022-11-21T15:03:21.605Z,8.40
2022-11-21T15:06:04.711Z,8.15
2022-11-21T15:11:27.172Z,8.75
2022-11-21T15:14:17.469Z,8.90
2022-11-21T15:16:47.841Z,9.50
2022-11-21T15:19:22.544Z,10.07
2022-11-21T15:21:53.792Z,10.10
2022-11-21T15:24:32.736Z,9.68
2022-11-21T15:27:01.617Z,10.68
2022-11-21T15:29:50.260Z,11.40
2022-11-21T15:32:18.624Z,11.00
2022-11-21T15:34:47.289Z,12.48
2022-11-21T15:37:19.550Z,11.30
2022-11-21T15:39:50.942Z,10.63
2022-11-21T15:42:43.789Z,11.65
2022-11-21T15:45:26.889Z,10.73
2022-11-21T15:47:56.920Z,11.27
2022-11-21T15:50:26.313Z,11.60
2022-11-21T15:52:56.010Z,10.90
2022-11-21T15:55:29.295Z,11.50
2022-11-21T15:57:57.737Z,11.88
2022-11-21T16:00:26.303Z,11.05
2022-11-21T16:02:54.555Z,11.02
2022-11-21T16:05:22.798Z,10.40
2022-11-21T16:07:51.267Z,10.38
2022-11-21T16:10:27.486Z,10.27
2022-11-21T16:12:56.831Z,10.00
2022-11-21T16:15:25.198Z,10.48
2022-11-21T16:17:54.079Z,10.05
2022-11-21T16:20:22.491Z,11.00
2022-11-21T16:22:50.935Z,10.60
2022-11-21T16:25:20.555Z,9.77
2022-11-21T16:27:48.962Z,10.77
2022-11-21T16:30:17.487Z,10.40
2022-11-21T16:32:47.056Z,9.98
2022-11-21T16:35:15.787Z,9.80
2022-11-21T16:37:44.354Z,10.75
2022-11-21T16:40:13.232Z,9.60
2022-11-21T16:42:43.022Z,10.50
2022-11-21T16:45:11.966Z,9.73
2022-11-21T16:47:44.253Z,10.65
2022-11-21T16:50:15.899Z,10.15
2022-11-21T16:52:44.202Z,9.60
2022-11-21T16:55:12.666Z,10.05
2022-11-21T16:57:43.329Z,10.20
2022-11-21T17:02:41.417Z,9.85
2022-11-21T17:05:10.824Z,9.23
2022-11-21T17:07:39.155Z,9.50
2022-11-21T17:10:08.670Z,10.18
2022-11-21T17:12:41.921Z,10.05
2022-11-21T17:15:14.374Z,9.77
2022-11-21T17:17:43.311Z,9.55
2022-11-21T17:20:12.452Z,9.43
2022-11-21T17:22:40.825Z,8.90
2022-11-21T17:25:10.368Z,9.32
2022-11-21T17:27:38.841Z,9.40
2022-11-21T17:30:09.203Z,9.07
2022-11-21T17:32:38.963Z,9.70
2022-11-21T17:35:08.932Z,9.17
2022-11-21T17:37:37.213Z,9.38
2022-11-21T17:40:10.958Z,8.93
2022-11-21T17:42:40.724Z,9.05
2022-11-21T17:45:10.170Z,9.33
2022-11-21T17:47:41.418Z,9.05
2022-11-21T17:50:09.982Z,9.10
2022-11-21T17:52:38.774Z,8.75
2022-11-21T17:55:07.922Z,8.73
2022-11-21T17:57:36.200Z,8.15
2022-11-21T18:00:05.303Z,8.90
2022-11-21T18:02:36.020Z,8.77
2022-11-21T18:05:06.754Z,9.13
2022-11-21T18:07:37.858Z,9.10
2022-11-21T18:10:35.226Z,8.68
2022-11-21T18:12:56.021Z,9.77
2022-11-21T18:15:24.272Z,9.00
2022-11-21T18:17:55.354Z,9.88
2022-11-21T18:20:25.153Z,10.15
2022-11-21T18:22:53.529Z,9.85
2022-11-21T18:25:21.769Z,9.48
2022-11-21T18:27:54.491Z,10.27
2022-11-21T18:30:23.301Z,10.23
2022-11-21T18:32:52.067Z,10.85
2022-11-21T18:35:20.542Z,9.82
2022-11-21T18:37:50.238Z,10.15
2022-11-21T18:40:19.049Z,9.97
2022-11-21T18:42:47.607Z,9.90
2022-11-21T18:45:16.005Z,10.15
2022-11-21T18:47:44.413Z,10.25
2022-11-21T18:50:12.848Z,10.32
2022-11-21T18:52:46.420Z,10.00
2022-11-21T18:55:16.737Z,9.98
2022-11-21T18:57:45.120Z,9.68
2022-11-21T19:00:14.826Z,8.73
2022-11-21T19:02:43.281Z,9.50
2022-11-21T19:05:14.021Z,9.30
2022-11-21T19:07:46.121Z,8.85
2022-11-21T19:10:41.497Z,9.23
2022-11-21T19:13:04.438Z,9.30
2022-11-21T19:15:32.953Z,8.95
2022-11-21T19:18:01.213Z,8.77
2022-11-21T19:20:29.649Z,8.75
2022-11-21T19:22:57.999Z,8.80
2022-11-21T19:25:27.744Z,9.52
2022-11-21T19:27:56.204Z,8.82
2022-11-21T19:30:24.683Z,7.85
2022-11-21T19:32:53.085Z,8.63
2022-11-21T19:35:23.654Z,7.50
2022-11-21T19:40:20.474Z,7.78
2022-11-21T19:42:50.225Z,8.05
2022-11-21T19:45:18.652Z,7.60
2022-11-21T19:47:47.799Z,7.43
2022-11-21T19:50:17.159Z,7.85
2022-11-21T19:52:45.465Z,7.95
2022-11-21T19:55:13.886Z,6.70
2022-11-21T19:57:42.297Z,7.75
2022-11-21T20:00:13.806Z,8.27
2022-11-21T20:02:43.573Z,8.57
2022-11-21T20:05:11.837Z,6.65
2022-11-21T20:07:40.146Z,7.18
2022-11-21T20:10:09.321Z,7.68
2022-11-21T20:12:37.791Z,7.35
2022-11-21T20:15:07.200Z,7.55
2022-11-21T20:17:37.023Z,8.30
2022-11-21T20:20:06.939Z,7.88
2022-11-21T20:22:35.278Z,7.93
2022-11-21T20:25:03.682Z,7.82
2022-11-21T20:27:32.605Z,7.95
2022-11-21T20:30:01.063Z,8.73
2022-11-21T20:32:29.528Z,7.80
2022-11-21T20:34:59.390Z,7.88
2022-11-21T20:37:27.778Z,7.47
2022-11-21T20:39:56.094Z,7.68
2022-11-21T20:42:24.446Z,8.40
2022-11-21T20:47:40.986Z,7.63
2022-11-21T20:50:21.458Z,7.28
2022-11-21T20:55:48.326Z,7.88
2022-11-21T20:58:16.808Z,8.20
2022-11-21T21:00:45.122Z,7.55
2022-11-21T21:03:13.890Z,7.30
2022-11-21T21:05:43.655Z,8.18
2022-11-21T21:08:11.989Z,7.93
2022-11-21T21:11:04.580Z,8.45
2022-11-21T21:13:28.986Z,8.63
2022-11-21T21:16:04.383Z,8.18
2022-11-21T21:18:34.695Z,7.90
2022-11-21T21:21:16.871Z,9.13
2022-11-21T21:23:49.511Z,8.18
2022-11-21T21:26:20.434Z,8.07
2022-11-21T21:28:49.325Z,8.75
2022-11-21T21:31:20.114Z,8.10
2022-11-21T21:33:49.514Z,8.90
2022-11-21T21:36:21.295Z,9.45
2022-11-21T21:38:52.253Z,9.90
2022-11-21T21:41:21.114Z,9.32
2022-11-21T21:43:51.163Z,10.52
2022-11-21T21:46:21.547Z,8.90
2022-11-21T21:48:52.558Z,9.23
2022-11-21T21:51:23.970Z,9.70
2022-11-21T21:53:54.085Z,9.27
2022-11-21T21:56:24.608Z,9.18
2022-11-21T21:58:53.381Z,9.40
2022-11-21T22:01:24.287Z,9.25
2022-11-21T22:03:56.074Z,9.38
2022-11-21T22:06:26.228Z,9.88
2022-11-21T22:08:56.261Z,9.60
2022-11-21T22:11:26.735Z,10.32
2022-11-21T22:13:57.934Z,10.75
2022-11-21T22:16:26.611Z,10.68
2022-11-21T22:18:55.189Z,10.43
2022-11-21T22:21:28.010Z,11.40
2022-11-21T22:26:47.670Z,10.65
2022-11-21T22:29:16.005Z,10.25
2022-11-21T22:31:44.319Z,11.32
2022-11-21T22:34:14.415Z,11.20
2022-11-21T22:36:44.725Z,10.40
2022-11-21T22:39:13.336Z,10.93
2022-11-21T22:41:41.645Z,11.10
2022-11-21T22:44:10.115Z,10.18
2022-11-21T22:46:38.592Z,11.50
2022-11-21T22:49:06.864Z,10.50
2022-11-21T22:51:35.185Z,10.13
2022-11-21T22:54:04.944Z,10.40
2022-11-21T22:56:33.297Z,10.73
2022-11-21T22:59:01.586Z,11.10
2022-11-21T23:01:30.041Z,11.73
2022-11-21T23:03:58.614Z,11.00
2022-11-21T23:06:28.361Z,12.10
2022-11-21T23:08:57.761Z,10.50
2022-11-21T23:11:29.677Z,11.27
2022-11-21T23:13:58.582Z,11.30
2022-11-21T23:16:28.596Z,10.65
2022-11-21T23:18:57.671Z,11.13
2022-11-21T23:21:25.881Z,11.38
2022-11-21T23:23:54.173Z,11.48
2022-11-21T23:26:22.487Z,11.95
2022-11-21T23:28:52.110Z,11.00
2022-11-21T23:31:20.398Z,11.50
2022-11-21T23:33:48.712Z,12.13
2022-11-21T23:36:16.926Z,10.23
2022-11-21T23:38:45.178Z,10.65
2022-11-21T23:41:13.427Z,10.30
2022-11-21T23:43:41.724Z,10.85
2022-11-21T23:46:11.408Z,9.07
2022-11-21T23:48:39.733Z,9.52
2022-11-21T23:51:08.050Z,9.50
2022-11-21T23:53:36.465Z,10.00
2022-11-21T23:56:05.578Z,9.57
2022-11-21T23:58:33.870Z,9.73
